Time;durP1;ratioP1;P1;durP2;ratioP2;P2;SDS_P1;SDS_P2;PMS_P1;PMS_P2;Temp;Humidity;BMP_temperature;BMP_pressure;BME280_temperature;BME280_humidity;BME280_pressure;Samples;Min_cycle;Max_cycle;Signal;HPM_P1;HPM_P2
2022/08/11 00:00:08;;;;;;;4.72;1.95;;;24.80;44.30;;;;;;5027552;28;20038;-69
2022/08/11 00:02:39;;;;;;;4.68;2.22;;;24.80;44.40;;;;;;5033077;28;20470;-69
2022/08/11 00:05:09;;;;;;;4.43;2.30;;;24.70;44.40;;;;;;5020139;28;20116;-69
2022/08/11 00:07:51;;;;;;;5.50;2.33;;;24.70;44.50;;;;;;5034984;28;20110;-70
2022/08/11 00:10:22;;;;;;;5.70;1.90;;;24.70;44.60;;;;;;5025555;28;20030;-69
2022/08/11 00:12:57;;;;;;;4.90;2.03;;;24.70;44.70;;;;;;5031286;28;20115;-69
2022/08/11 00:15:24;;;;;;;10.57;2.50;;;24.60;44.80;;;;;;5021700;28;20048;-69
2022/08/11 00:17:58;;;;;;;5.90;2.08;;;24.60;44.80;;;;;;5031584;28;20712;-69
2022/08/11 00:20:31;;;;;;;4.75;2.10;;;24.60;44.90;;;;;;5031649;28;20029;-69
2022/08/11 00:23:19;;;;;;;5.35;2.00;;;24.60;45.10;;;;;;5034645;28;20088;-69
2022/08/11 00:25:50;;;;;;;3.75;1.77;;;24.50;45.10;;;;;;5013501;28;20363;-69
2022/08/11 00:28:30;;;;;;;6.35;2.35;;;24.50;45.20;;;;;;5018973;28;20025;-69
2022/08/11 00:30:58;;;;;;;4.32;2.15;;;24.50;45.30;;;;;;5031285;28;20029;-69
2022/08/11 00:33:38;;;;;;;4.30;2.08;;;24.50;45.40;;;;;;5032287;28;20087;-68
2022/08/11 00:36:05;;;;;;;6.25;2.50;;;24.50;45.50;;;;;;5021741;28;20092;-69
2022/08/11 00:38:35;;;;;;;5.93;2.20;;;24.40;45.60;;;;;;5011729;28;22228;-69
2022/08/11 00:41:39;;;;;;;5.20;2.10;;;24.40;45.70;;;;;;5015693;28;20410;-69
2022/08/11 00:44:26;;;;;;;6.32;2.20;;;24.40;45.70;;;;;;5019949;28;20040;-69
2022/08/11 00:47:17;;;;;;;5.03;2.10;;;24.40;45.80;;;;;;5023139;28;20427;-69
2022/08/11 00:49:46;;;;;;;3.90;1.83;;;24.30;45.90;;;;;;5034142;28;20335;-69
2022/08/11 00:52:49;;;;;;;7.00;2.20;;;24.30;46.10;;;;;;5027735;28;20033;-69
2022/08/11 00:55:35;;;;;;;6.95;2.00;;;24.30;46.10;;;;;;5020321;28;20029;-69
2022/08/11 00:58:39;;;;;;;4.95;2.22;;;24.20;46.20;;;;;;5020032;28;20429;-69
2022/08/11 01:01:14;;;;;;;3.38;1.70;;;24.20;46.30;;;;;;5026771;28;20041;-69
2022/08/11 01:04:27;;;;;;;6.18;2.20;;;24.20;46.40;;;;;;5029145;28;20079;-69
2022/08/11 01:07:07;;;;;;;5.07;1.98;;;24.20;46.40;;;;;;5019214;28;20034;-69
2022/08/11 01:09:48;;;;;;;5.20;2.00;;;24.20;46.50;;;;;;5025742;28;20025;-69
2022/08/11 01:12:28;;;;;;;4.85;1.98;;;24.10;46.50;;;;;;5012367;28;20168;-68
2022/08/11 01:14:56;;;;;;;4.68;1.95;;;24.10;46.80;;;;;;5001891;28;20053;-69
2022/08/11 01:17:54;;;;;;;4.78;1.83;;;24.10;46.90;;;;;;5016935;28;20058;-69
2022/08/11 01:20:54;;;;;;;5.07;2.00;;;24.10;47.00;;;;;;5031903;28;20052;-69
2022/08/11 01:23:46;;;;;;;4.85;2.28;;;24.10;47.00;;;;;;5009661;28;20042;-69
2022/08/11 01:26:42;;;;;;;4.63;2.13;;;24.00;47.10;;;;;;5014666;28;20390;-69
2022/08/11 01:29:45;;;;;;;4.78;2.10;;;24.00;47.10;;;;;;5004670;28;20026;-69
2022/08/11 01:32:50;;;;;;;4.55;2.00;;;23.90;47.10;;;;;;5020602;28;20080;-68
2022/08/11 01:35:53;;;;;;;5.47;2.20;;;23.90;47.20;;;;;;5022958;28;20040;-68
2022/08/11 01:38:45;;;;;;;4.80;2.10;;;23.90;47.40;;;;;;5031397;28;20052;-69
2022/08/11 01:44:51;;;;;;;5.10;2.00;;;23.80;47.40;;;;;;5009734;28;20344;-69
2022/08/11 01:50:29;;;;;;;4.75;2.42;;;23.80;47.70;;;;;;5034469;28;20398;-69
2022/08/11 01:53:24;;;;;;;4.40;2.08;;;23.80;47.80;;;;;;5030206;28;20025;-69
2022/08/11 01:55:57;;;;;;;3.90;1.65;;;23.80;47.90;;;;;;5021966;28;20370;-69
2022/08/11 01:58:48;;;;;;;5.50;2.05;;;23.70;48.00;;;;;;5028707;28;20430;-69
2022/08/11 02:01:36;;;;;;;4.53;1.85;;;23.70;48.00;;;;;;5031744;28;20418;-69
2022/08/11 02:04:41;;;;;;;4.47;1.85;;;23.60;48.10;;;;;;5014470;28;20133;-69
2022/08/11 02:07:34;;;;;;;5.75;2.30;;;23.60;48.30;;;;;;5015267;28;20439;-68
2022/08/11 02:13:46;;;;;;;5.97;2.10;;;23.50;48.60;;;;;;5017931;28;20138;-68
2022/08/11 02:16:23;;;;;;;3.67;1.83;;;23.50;48.60;;;;;;5028514;28;20076;-68
2022/08/11 02:25:07;;;;;;;4.50;2.13;;;23.40;48.90;;;;;;5014055;28;20041;-69
2022/08/11 02:27:48;;;;;;;6.03;2.30;;;23.40;48.90;;;;;;5018224;28;20075;-69
2022/08/11 02:30:19;;;;;;;5.43;2.30;;;23.30;48.90;;;;;;5032830;28;20172;-69
2022/08/11 02:33:23;;;;;;;5.40;2.30;;;23.30;49.00;;;;;;5006599;28;20026;-69
2022/08/11 02:36:11;;;;;;;4.07;1.92;;;23.30;49.20;;;;;;5004756;28;20080;-69
2022/08/11 02:38:58;;;;;;;4.68;1.80;;;23.30;49.30;;;;;;5018789;28;20037;-68
2022/08/11 02:44:43;;;;;;;5.10;2.30;;;23.20;49.50;;;;;;5013845;28;20037;-68
2022/08/11 02:49:52;;;;;;;6.35;2.33;;;23.20;49.70;;;;;;5004795;28;20088;-69
2022/08/11 02:50:40;;;;;;;5.80;2.15;;;23.10;49.80;;;;;;5031718;28;20048;-69
2022/08/11 02:53:16;;;;;;;4.22;1.73;;;23.10;50.00;;;;;;5018993;28;20120;-69
2022/08/11 02:56:07;;;;;;;5.50;2.45;;;23.00;50.10;;;;;;5008733;28;20034;-69
2022/08/11 03:01:57;;;;;;;4.53;2.00;;;23.00;50.30;;;;;;5019476;28;20483;-69
2022/08/11 03:04:47;;;;;;;5.03;2.65;;;23.00;50.50;;;;;;5020192;28;20140;-69
2022/08/11 03:07:26;;;;;;;4.68;2.10;;;22.90;50.60;;;;;;5021372;28;20025;-69
2022/08/11 03:10:04;;;;;;;5.15;2.17;;;22.90;50.70;;;;;;5010392;28;20030;-69
2022/08/11 03:18:44;;;;;;;4.80;2.28;;;22.80;50.90;;;;;;5008726;28;20042;-69
2022/08/11 03:21:21;;;;;;;7.07;2.40;;;22.80;51.00;;;;;;5012882;28;20132;-69
2022/08/11 03:24:26;;;;;;;6.05;2.45;;;22.80;51.10;;;;;;5032668;28;20037;-69
2022/08/11 03:27:06;;;;;;;4.50;2.22;;;22.80;51.20;;;;;;5020332;28;20374;-69
2022/08/11 03:29:43;;;;;;;5.65;2.42;;;22.70;51.30;;;;;;5032777;28;20336;-69
2022/08/11 03:32:31;;;;;;;5.60;2.42;;;22.70;51.30;;;;;;5025801;28;20168;-69
2022/08/11 03:35:01;;;;;;;6.28;2.30;;;22.70;51.50;;;;;;5026756;28;20037;-69
2022/08/11 03:37:50;;;;;;;5.80;2.35;;;22.70;51.60;;;;;;5017215;28;20030;-69
2022/08/11 03:43:45;;;;;;;6.32;2.75;;;22.60;51.70;;;;;;5027396;28;20030;-69
2022/08/11 03:46:45;;;;;;;5.13;2.35;;;22.60;51.60;;;;;;5015578;28;20044;-69
2022/08/11 03:49:41;;;;;;;6.68;2.35;;;22.60;51.50;;;;;;5016106;28;20477;-69
2022/08/11 03:52:26;;;;;;;5.75;2.40;;;22.60;51.70;;;;;;5036565;28;20378;-69
2022/08/11 03:55:36;;;;;;;6.40;2.72;;;22.50;51.70;;;;;;5018560;28;20041;-69
2022/08/11 03:58:39;;;;;;;5.28;2.40;;;22.50;51.80;;;;;;5028106;28;20029;-69
2022/08/11 04:01:54;;;;;;;5.35;2.38;;;22.50;52.40;;;;;;5016013;28;20057;-69
2022/08/11 04:04:50;;;;;;;5.25;2.50;;;22.50;51.90;;;;;;4981688;28;20042;-69
2022/08/11 04:07:30;;;;;;;4.97;2.28;;;22.40;52.10;;;;;;4956249;28;20426;-69
2022/08/11 04:10:14;;;;;;;5.00;2.28;;;22.40;52.20;;;;;;4974477;28;20031;-69
2022/08/11 04:13:01;;;;;;;6.22;2.50;;;22.40;52.20;;;;;;4972482;28;20225;-69
2022/08/11 04:16:00;;;;;;;5.25;2.17;;;22.40;52.30;;;;;;4975262;28;20122;-69
2022/08/11 04:19:07;;;;;;;6.25;2.50;;;22.30;52.30;;;;;;4958888;28;20045;-69
2022/08/11 04:21:55;;;;;;;5.20;2.30;;;22.30;52.30;;;;;;4942298;28;20035;-69
2022/08/11 04:24:48;;;;;;;6.35;2.28;;;22.30;52.30;;;;;;4973671;28;20046;-69
2022/08/11 04:27:44;;;;;;;6.10;2.53;;;22.30;52.40;;;;;;4959386;28;20034;-69
2022/08/11 04:30:30;;;;;;;6.22;2.40;;;22.30;52.40;;;;;;4974480;28;20066;-69
2022/08/11 04:33:28;;;;;;;4.57;2.17;;;22.30;52.40;;;;;;4978037;28;20035;-69
2022/08/11 04:39:39;;;;;;;5.80;2.28;;;22.30;52.50;;;;;;5029624;28;20034;-69
2022/08/11 04:45:33;;;;;;;5.68;2.53;;;22.30;52.60;;;;;;5014826;28;20038;-69
2022/08/11 05:04:04;;;;;;;5.22;2.58;;;22.30;52.80;;;;;;5033865;28;20124;-69
2022/08/11 05:06:53;;;;;;;6.60;2.70;;;22.30;52.80;;;;;;5034315;28;20171;-69
2022/08/11 05:09:48;;;;;;;5.15;2.22;;;22.30;52.90;;;;;;4999553;28;20056;-69
2022/08/11 05:12:34;;;;;;;5.05;2.42;;;22.30;53.00;;;;;;4993185;28;20042;-69
2022/08/11 05:35:25;;;;;;;5.78;2.65;;;22.50;52.50;;;;;;4981277;28;20108;-66
2022/08/11 05:57:30;;;;;;;7.40;2.50;;;23.30;51.30;;;;;;5022890;28;20029;-67
2022/08/11 06:00:02;;;;;;;7.75;2.95;;;23.30;51.20;;;;;;5026283;28;20034;-66
2022/08/11 06:02:32;;;;;;;7.00;2.92;;;23.40;51.20;;;;;;5020637;28;20395;-66
2022/08/11 06:05:00;;;;;;;5.75;2.25;;;23.50;51.10;;;;;;5026804;28;20116;-67
2022/08/11 06:07:29;;;;;;;4.85;2.33;;;23.50;50.70;;;;;;5012742;28;20021;-66
2022/08/11 06:09:57;;;;;;;6.90;2.28;;;23.60;50.30;;;;;;5027966;28;20339;-65
2022/08/11 06:12:25;;;;;;;6.28;2.50;;;23.80;50.20;;;;;;5022841;28;20052;-66
2022/08/11 06:14:55;;;;;;;5.10;2.25;;;23.90;49.80;;;;;;5034472;28;20084;-66
2022/08/11 06:17:26;;;;;;;6.82;2.65;;;24.10;49.60;;;;;;5025437;28;20376;-66
2022/08/11 06:20:06;;;;;;;6.45;2.45;;;24.30;49.10;;;;;;5024851;28;20068;-67
2022/08/11 06:22:33;;;;;;;4.68;2.00;;;24.50;48.60;;;;;;5011398;28;20021;-67
2022/08/11 06:25:01;;;;;;;4.50;2.00;;;24.70;48.20;;;;;;5026094;28;20073;-67
2022/08/11 06:27:32;;;;;;;7.53;2.47;;;24.90;47.80;;;;;;5028953;28;20392;-67
2022/08/11 06:29:58;;;;;;;4.97;2.28;;;25.10;47.50;;;;;;5025702;28;20044;-66
2022/08/11 06:32:30;;;;;;;6.25;2.50;;;25.30;47.20;;;;;;5016225;28;20561;-66
2022/08/11 06:35:18;;;;;;;6.22;2.22;;;25.50;46.90;;;;;;5019266;28;20037;-66
2022/08/11 06:38:08;;;;;;;6.50;2.60;;;25.70;46.70;;;;;;5031227;28;20404;-67
2022/08/11 06:40:39;;;;;;;6.50;2.88;;;25.90;46.10;;;;;;5041451;28;20064;-67
2022/08/11 06:43:16;;;;;;;6.40;2.28;;;26.10;45.90;;;;;;5026837;28;20105;-68
2022/08/11 06:45:56;;;;;;;5.97;2.50;;;26.20;45.60;;;;;;5036564;28;20033;-68
2022/08/11 06:48:23;;;;;;;5.43;2.30;;;26.30;45.20;;;;;;5029949;28;20338;-67
2022/08/11 06:51:11;;;;;;;5.00;2.15;;;26.40;45.00;;;;;;5032955;28;20046;-68
2022/08/11 06:53:47;;;;;;;5.47;2.55;;;26.60;44.90;;;;;;5015228;28;20037;-67
2022/08/11 07:02:06;;;;;;;5.88;2.53;;;27.20;44.30;;;;;;5025365;28;20045;-67
2022/08/11 07:05:02;;;;;;;5.75;2.50;;;27.30;44.10;;;;;;5018756;28;20056;-67
2022/08/11 07:16:27;;;;;;;5.55;2.75;;;27.80;43.30;;;;;;5014979;28;20037;-71
2022/08/11 07:30:38;;;;;;;6.97;2.65;;;28.30;42.50;;;;;;5016924;28;20041;-69
2022/08/11 07:33:05;;;;;;;6.00;2.78;;;28.40;42.30;;;;;;5020114;28;20032;-69
2022/08/11 07:35:34;;;;;;;6.30;2.47;;;28.50;42.10;;;;;;5037174;28;20033;-69
2022/08/11 07:38:05;;;;;;;6.05;1.90;;;28.60;41.80;;;;;;5035750;28;20029;-69
2022/08/11 07:40:32;;;;;;;5.85;2.83;;;28.70;41.70;;;;;;5037201;28;20493;-69
2022/08/11 07:42:59;;;;;;;5.40;2.33;;;28.80;41.60;;;;;;5035786;28;20017;-69
2022/08/11 07:53:42;;;;;;;4.70;2.05;;;29.20;41.00;;;;;;5013454;28;20033;-68
2022/08/11 07:56:08;;;;;;;6.32;2.60;;;29.30;41.00;;;;;;5012819;28;20022;-69
2022/08/11 08:18:01;;;;;;;6.78;2.58;;;30.10;39.70;;;;;;5010993;28;20133;-69
2022/08/11 08:20:44;;;;;;;5.07;2.42;;;30.20;39.70;;;;;;4996591;28;20038;-70
2022/08/11 08:23:10;;;;;;;7.72;2.80;;;30.20;39.30;;;;;;5010138;28;20045;-69
2022/08/11 08:25:38;;;;;;;6.20;2.47;;;30.40;39.60;;;;;;5011342;28;20096;-70
2022/08/11 08:28:16;;;;;;;7.00;2.60;;;30.50;39.40;;;;;;5011113;28;20104;-71
2022/08/11 08:30:46;;;;;;;5.50;2.30;;;30.50;39.20;;;;;;5011075;28;20034;-69
2022/08/11 08:33:20;;;;;;;5.60;2.00;;;30.60;39.20;;;;;;4997180;28;20041;-70
2022/08/11 08:35:49;;;;;;;6.05;2.50;;;30.70;39.10;;;;;;5012318;28;20117;-70
2022/08/11 08:38:15;;;;;;;5.70;2.38;;;30.80;38.90;;;;;;5013600;28;20030;-69
2022/08/11 08:40:44;;;;;;;4.07;2.13;;;30.80;38.80;;;;;;4995378;28;20122;-70
2022/08/11 08:43:16;;;;;;;3.92;2.05;;;30.90;38.70;;;;;;5012655;28;20029;-70
2022/08/11 08:45:42;;;;;;;6.78;2.60;;;31.00;38.60;;;;;;5010595;28;20036;-70
2022/08/11 08:48:12;;;;;;;8.00;2.50;;;31.10;38.30;;;;;;5009803;28;20423;-70
2022/08/11 08:53:40;;;;;;;;;;;31.20;38.20;;;;;;5011128;28;20033;-70
2022/08/11 08:56:08;;;;;;;9.30;2.47;;;31.30;38.40;;;;;;5009753;28;20266;-70
2022/08/11 08:58:36;;;;;;;5.10;2.15;;;31.30;38.10;;;;;;5010288;28;20415;-69
2022/08/11 09:01:02;;;;;;;5.97;2.15;;;31.30;37.90;;;;;;5013981;28;20034;-69
2022/08/11 09:03:28;;;;;;;5.20;2.50;;;31.40;37.70;;;;;;5009670;28;20037;-70
2022/08/11 09:05:55;;;;;;;5.25;2.42;;;31.50;37.70;;;;;;5007220;28;20116;-70
2022/08/11 09:08:23;;;;;;;7.00;2.22;;;31.60;37.50;;;;;;5009767;28;20120;-70
2022/08/11 09:11:48;;;;;;;6.53;2.60;;;31.70;37.30;;;;;;5013120;28;20105;-69
2022/08/11 09:13:36;;;;;;;5.57;2.00;;;31.80;37.30;;;;;;5011769;28;20057;-70
2022/08/11 09:16:05;;;;;;;6.03;2.30;;;31.90;37.00;;;;;;4992660;28;20171;-70
2022/08/11 09:18:32;;;;;;;6.10;2.10;;;32.00;36.80;;;;;;4995169;28;20029;-70
2022/08/11 09:20:58;;;;;;;6.40;2.53;;;32.20;36.90;;;;;;5005010;28;20454;-69
2022/08/11 09:28:54;;;;;;;5.18;2.05;;;32.50;36.30;;;;;;5016313;28;20048;-70
2022/08/11 09:31:21;;;;;;;6.10;2.20;;;32.60;36.10;;;;;;5001479;28;20035;-69
2022/08/11 09:33:51;;;;;;;5.90;2.35;;;32.60;35.90;;;;;;5018853;28;20068;-70
2022/08/11 09:41:49;;;;;;;5.75;2.25;;;32.80;35.40;;;;;;5009757;28;20034;-74
2022/08/11 09:47:01;;;;;;;4.90;2.20;;;33.00;35.60;;;;;;5003146;28;20033;-70
2022/08/11 09:49:28;;;;;;;6.85;2.30;;;33.10;34.70;;;;;;5014117;28;20030;-71
2022/08/11 09:51:55;;;;;;;4.43;2.30;;;33.20;34.50;;;;;;5010402;28;20026;-70
2022/08/11 09:54:23;;;;;;;6.25;2.60;;;33.20;34.30;;;;;;5003608;28;20026;-71
2022/08/11 09:59:37;;;;;;;4.97;1.98;;;33.40;34.10;;;;;;5004670;28;20026;-71
2022/08/11 10:02:06;;;;;;;9.75;2.70;;;33.50;34.00;;;;;;5026501;28;20025;-71
2022/08/11 10:04:41;;;;;;;4.72;2.30;;;33.50;33.70;;;;;;5019181;28;20026;-71
2022/08/11 10:07:09;;;;;;;8.75;2.40;;;33.60;33.20;;;;;;5013515;28;20104;-72
2022/08/11 10:09:37;;;;;;;4.40;2.00;;;33.70;33.20;;;;;;5015250;28;20026;-71
2022/08/11 10:12:08;;;;;;;5.20;2.30;;;33.70;33.10;;;;;;5018615;28;20033;-71
2022/08/11 10:17:23;;;;;;;6.00;2.50;;;33.80;32.90;;;;;;5018817;28;20029;-71
2022/08/11 10:19:50;;;;;;;4.78;2.50;;;33.90;32.70;;;;;;5016404;28;20518;-71
2022/08/11 10:27:53;;;;;;;5.65;2.08;;;34.00;32.20;;;;;;5016744;28;20344;-71
2022/08/11 10:35:48;;;;;;;3.85;1.83;;;34.10;32.10;;;;;;5031819;28;20358;-71
2022/08/11 10:38:14;;;;;;;5.03;2.38;;;34.20;32.10;;;;;;5037593;28;20025;-71
2022/08/11 10:40:44;;;;;;;5.07;2.17;;;34.20;31.80;;;;;;5033699;28;20037;-71
2022/08/11 10:43:14;;;;;;;4.70;1.97;;;34.30;31.80;;;;;;5028768;28;20374;-71
2022/08/11 10:48:36;;;;;;;5.38;2.08;;;34.30;31.50;;;;;;5012924;28;20018;-71
2022/08/11 10:51:12;;;;;;;4.00;2.15;;;34.30;31.30;;;;;;5025050;28;20018;-71
2022/08/11 10:59:17;;;;;;;4.00;1.88;;;34.40;31.20;;;;;;5008355;28;20455;-71
2022/08/11 11:01:43;;;;;;;5.03;2.20;;;34.50;31.10;;;;;;5016799;28;20048;-71
2022/08/11 11:04:36;;;;;;;3.88;2.20;;;34.50;31.00;;;;;;4998560;28;20036;-71
2022/08/11 11:07:15;;;;;;;5.28;1.88;;;34.50;30.70;;;;;;5008041;28;20034;-71
2022/08/11 11:09:47;;;;;;;4.45;2.13;;;34.60;30.90;;;;;;5017811;28;20118;-71
2022/08/11 11:18:24;;;;;;;6.32;2.63;;;34.60;30.70;;;;;;5026175;28;20121;-72
2022/08/11 11:20:57;;;;;;;5.15;2.10;;;34.70;30.50;;;;;;5034989;28;20454;-71
2022/08/11 11:23:25;;;;;;;4.05;1.70;;;34.70;30.30;;;;;;5012839;28;20342;-70
2022/08/11 11:26:05;;;;;;;4.00;2.03;;;34.70;30.10;;;;;;5003662;28;20045;-70
2022/08/11 11:28:46;;;;;;;;;;;34.70;30.00;;;;;;5001317;28;20034;-70
2022/08/11 11:31:32;;;;;;;4.07;1.92;;;34.70;30.20;;;;;;5013973;28;19921;-70
2022/08/11 11:34:07;;;;;;;4.28;1.70;;;34.70;29.90;;;;;;5024159;28;20034;-70
2022/08/11 11:36:41;;;;;;;3.88;2.00;;;34.70;29.90;;;;;;5034526;28;20099;-70
2022/08/11 11:39:08;;;;;;;5.78;2.10;;;34.70;29.70;;;;;;5021348;28;20033;-70
2022/08/11 11:41:34;;;;;;;4.50;2.10;;;34.70;29.70;;;;;;5033857;28;20021;-70
2022/08/11 11:44:00;;;;;;;4.68;1.95;;;34.70;29.70;;;;;;5021001;28;20328;-70
2022/08/11 11:46:28;;;;;;;4.63;1.92;;;34.70;29.60;;;;;;5025945;28;20095;-70
2022/08/11 11:48:55;;;;;;;3.13;1.50;;;34.70;29.60;;;;;;4998418;28;20026;-70
2022/08/11 11:51:25;;;;;;;4.40;2.15;;;34.70;29.60;;;;;;5027552;28;20104;-70
2022/08/11 11:53:52;;;;;;;5.32;2.20;;;34.70;29.50;;;;;;5036315;28;20458;-70
2022/08/11 11:56:20;;;;;;;5.43;2.13;;;34.70;29.50;;;;;;5029415;28;20033;-70
2022/08/11 12:01:32;;;;;;;4.78;2.10;;;34.60;29.30;;;;;;5028269;28;20041;-70
2022/08/11 12:04:00;;;;;;;5.15;2.15;;;34.60;29.30;;;;;;5028872;28;20026;-71
2022/08/11 12:06:26;;;;;;;3.55;1.80;;;34.50;29.30;;;;;;5035669;28;20025;-70
2022/08/11 12:08:56;;;;;;;5.30;2.20;;;34.40;29.30;;;;;;5025910;28;20450;-70
2022/08/11 12:14:09;;;;;;;4.40;2.00;;;34.30;29.20;;;;;;5004868;28;20383;-70
2022/08/11 12:16:37;;;;;;;4.22;1.85;;;34.10;29.20;;;;;;5019634;28;20171;-70
2022/08/11 12:19:06;;;;;;;3.53;1.70;;;34.00;29.00;;;;;;5028929;28;20120;-70
2022/08/11 12:21:34;;;;;;;4.22;2.17;;;33.90;29.10;;;;;;5032392;28;20040;-70
2022/08/11 12:29:30;;;;;;;4.05;1.83;;;33.80;29.30;;;;;;5023758;28;20171;-70
2022/08/11 12:31:59;;;;;;;2.90;1.70;;;33.70;29.30;;;;;;5016678;28;20446;-70
2022/08/11 12:34:26;;;;;;;5.57;2.00;;;33.70;29.30;;;;;;5030036;28;20039;-70
2022/08/11 12:36:58;;;;;;;3.80;1.83;;;33.60;29.30;;;;;;5025363;28;20100;-70
2022/08/11 12:45:26;;;;;;;3.47;1.65;;;33.40;29.20;;;;;;5008567;28;20018;-69
2022/08/11 12:53:28;;;;;;;4.50;1.95;;;33.20;29.20;;;;;;5024118;28;20034;-70
2022/08/11 12:58:42;;;;;;;4.15;1.95;;;33.00;29.40;;;;;;5017328;28;20032;-70
2022/08/11 13:06:39;;;;;;;4.72;1.80;;;32.80;29.50;;;;;;5031924;28;20049;-70
2022/08/11 13:09:08;;;;;;;6.30;1.90;;;32.70;29.60;;;;;;5027035;28;20075;-70
2022/08/11 13:14:19;;;;;;;4.68;2.13;;;32.70;29.70;;;;;;5023109;28;20040;-70
2022/08/11 13:19:31;;;;;;;3.80;1.77;;;32.60;29.50;;;;;;5022781;28;20065;-70
2022/08/11 13:21:57;;;;;;;3.28;1.65;;;32.50;29.40;;;;;;5028775;28;20060;-70
2022/08/11 13:24:23;;;;;;;5.45;1.90;;;32.40;29.40;;;;;;5023845;28;20069;-70
2022/08/11 13:26:50;;;;;;;3.25;1.63;;;32.40;29.50;;;;;;5020242;28;20030;-70
2022/08/11 13:29:27;;;;;;;3.10;1.67;;;32.30;29.50;;;;;;5028007;28;20371;-70
2022/08/11 13:31:57;;;;;;;4.20;1.98;;;32.30;29.60;;;;;;5019378;28;20026;-70
2022/08/11 13:34:25;;;;;;;3.42;1.77;;;32.20;29.70;;;;;;5029298;28;20039;-70
2022/08/11 13:36:53;;;;;;;5.68;2.13;;;32.20;29.70;;;;;;5011477;28;20371;-70
2022/08/11 13:39:22;;;;;;;3.35;1.88;;;32.10;29.60;;;;;;5006288;28;20445;-70
2022/08/11 13:41:48;;;;;;;3.95;2.00;;;32.10;29.60;;;;;;5006454;28;20169;-70
2022/08/11 13:44:16;;;;;;;4.63;1.90;;;32.00;29.60;;;;;;5005524;28;20454;-70
2022/08/11 13:46:42;;;;;;;3.95;1.83;;;32.00;29.60;;;;;;5011236;28;20018;-70
2022/08/11 13:49:10;;;;;;;4.40;2.17;;;32.00;29.60;;;;;;5013560;28;20367;-70
2022/08/11 13:51:38;;;;;;;4.45;1.92;;;31.90;29.50;;;;;;5010813;28;20455;-70
2022/08/11 13:54:26;;;;;;;4.35;1.88;;;31.90;29.50;;;;;;4996581;28;20018;-70
2022/08/11 13:56:56;;;;;;;3.85;2.05;;;31.80;29.50;;;;;;5012650;28;20176;-70
2022/08/11 13:59:23;;;;;;;3.60;1.80;;;31.70;29.50;;;;;;5014002;28;20022;-70
2022/08/11 14:01:53;;;;;;;6.45;1.80;;;31.70;29.60;;;;;;5006771;28;20030;-70
2022/08/11 14:04:35;;;;;;;4.07;2.00;;;31.70;29.70;;;;;;5012474;28;20030;-69
2022/08/11 14:07:05;;;;;;;3.05;1.60;;;31.60;29.70;;;;;;5013712;28;20040;-70
2022/08/11 14:09:36;;;;;;;5.78;2.17;;;31.60;29.70;;;;;;5026751;28;20026;-70
2022/08/11 14:15:03;;;;;;;6.20;2.13;;;31.50;29.70;;;;;;5009850;28;20033;-70
2022/08/11 14:17:32;;;;;;;4.72;2.00;;;31.40;29.80;;;;;;5020877;28;20071;-70
2022/08/11 14:20:03;;;;;;;4.55;2.00;;;31.40;29.90;;;;;;5034301;28;20026;-70
2022/08/11 14:22:29;;;;;;;4.30;1.90;;;31.40;29.90;;;;;;5016552;28;20033;-70
2022/08/11 14:24:57;;;;;;;4.22;1.98;;;31.30;30.30;;;;;;5020649;28;20033;-70
2022/08/11 14:27:29;;;;;;;4.78;2.17;;;31.30;29.80;;;;;;5011705;28;20026;-71
2022/08/11 14:29:56;;;;;;;3.67;1.80;;;31.30;29.70;;;;;;5018509;28;20030;-71
2022/08/11 14:32:23;;;;;;;4.90;2.13;;;31.30;29.80;;;;;;5003980;28;20022;-70
2022/08/11 14:34:49;;;;;;;4.22;2.03;;;31.30;29.80;;;;;;5018861;28;20034;-71
2022/08/11 14:37:20;;;;;;;5.72;2.20;;;31.20;29.80;;;;;;5026874;28;20480;-70
2022/08/11 14:39:57;;;;;;;3.28;1.77;;;31.20;29.80;;;;;;5033731;28;20053;-69
2022/08/11 14:48:03;;;;;;;4.70;2.20;;;31.10;29.90;;;;;;5026610;28;20030;-69
2022/08/11 14:50:30;;;;;;;4.78;1.92;;;31.10;30.00;;;;;;5025387;28;20036;-69
2022/08/11 14:53:05;;;;;;;4.57;2.17;;;31.10;29.90;;;;;;5001927;28;20073;-69
2022/08/11 14:58:27;;;;;;;6.72;2.00;;;31.10;29.90;;;;;;5023563;28;20355;-69
2022/08/11 15:00:55;;;;;;;4.20;2.08;;;31.00;29.80;;;;;;5031994;28;20030;-70
2022/08/11 15:03:24;;;;;;;4.97;1.90;;;31.00;29.70;;;;;;5026650;28;20312;-69
2022/08/11 15:05:58;;;;;;;4.63;1.80;;;30.90;29.60;;;;;;5022221;28;20426;-69
2022/08/11 15:14:07;;;;;;;4.05;2.00;;;30.90;29.60;;;;;;5022264;28;20038;-70
2022/08/11 15:19:22;;;;;;;4.63;1.85;;;30.90;29.50;;;;;;5028731;28;20079;-71
2022/08/11 15:24:35;;;;;;;3.72;2.00;;;30.90;29.50;;;;;;5019094;28;20128;-71
2022/08/11 15:38:14;;;;;;;2.88;1.60;;;30.80;29.70;;;;;;5017947;28;20416;-70
2022/08/11 15:46:31;;;;;;;3.05;1.60;;;30.70;29.80;;;;;;5035623;28;20445;-70
2022/08/11 15:49:07;;;;;;;4.88;1.92;;;30.70;29.80;;;;;;5017182;28;20034;-69
2022/08/11 15:51:41;;;;;;;4.18;1.77;;;30.70;29.90;;;;;;5012840;28;20086;-70
2022/08/11 15:54:11;;;;;;;4.13;2.00;;;30.70;29.80;;;;;;5008522;28;20091;-69
2022/08/11 15:56:41;;;;;;;3.97;1.70;;;30.70;29.80;;;;;;5031446;28;20364;-70
2022/08/11 16:04:43;;;;;;;3.75;1.85;;;30.60;29.80;;;;;;5026799;28;20043;-70
2022/08/11 16:07:23;;;;;;;4.35;1.90;;;30.60;29.70;;;;;;5019362;28;20026;-70
2022/08/11 16:10:00;;;;;;;5.05;2.30;;;30.60;29.70;;;;;;5020989;28;20025;-70
2022/08/11 16:12:30;;;;;;;3.95;1.98;;;30.60;29.90;;;;;;5025905;28;20149;-70
2022/08/11 16:17:48;;;;;;;4.72;1.73;;;30.50;29.90;;;;;;5029622;28;20286;-70
2022/08/11 16:20:18;;;;;;;3.87;1.77;;;30.60;29.90;;;;;;5017595;28;20026;-70
2022/08/11 16:22:47;;;;;;;3.78;2.05;;;30.50;29.90;;;;;;5029272;28;20283;-70
2022/08/11 16:25:23;;;;;;;5.03;2.03;;;30.50;29.90;;;;;;5020208;28;20502;-72
2022/08/11 16:27:52;;;;;;;6.57;1.98;;;30.50;29.90;;;;;;5024659;28;20034;-70
2022/08/11 16:30:21;;;;;;;4.30;1.90;;;30.50;30.00;;;;;;5004722;28;20026;-69
2022/08/11 16:32:52;;;;;;;5.55;2.10;;;30.50;30.00;;;;;;5022361;28;20017;-70
2022/08/11 16:40:57;;;;;;;4.55;1.98;;;30.50;30.30;;;;;;5007418;28;20517;-70
2022/08/11 16:49:15;;;;;;;5.35;1.90;;;30.40;30.40;;;;;;5011367;28;20103;-70
2022/08/11 16:51:41;;;;;;;4.28;2.25;;;30.40;30.50;;;;;;5014842;28;20026;-70
2022/08/11 16:54:07;;;;;;;4.47;2.20;;;30.40;30.60;;;;;;5014837;28;20041;-70
2022/08/11 16:56:44;;;;;;;5.00;2.20;;;30.40;30.70;;;;;;5008627;28;20033;-70
2022/08/11 16:59:16;;;;;;;3.97;1.98;;;30.30;30.70;;;;;;5008331;28;20034;-70
2022/08/11 17:01:53;;;;;;;5.60;2.13;;;30.30;30.80;;;;;;5010563;28;20087;-70
2022/08/11 17:18:38;;;;;;;5.20;1.90;;;30.30;31.30;;;;;;5027512;28;20034;-68
2022/08/11 17:21:02;;;;;;;3.45;1.73;;;30.20;31.20;;;;;;5006352;28;20474;-68
2022/08/11 17:23:45;;;;;;;4.22;1.77;;;30.20;31.30;;;;;;5009608;28;20096;-68
2022/08/11 17:26:15;;;;;;;3.88;1.80;;;30.20;31.20;;;;;;5027982;28;20041;-68
2022/08/11 17:28:43;;;;;;;4.57;1.65;;;30.20;31.30;;;;;;5027124;28;20061;-70
2022/08/11 17:36:43;;;;;;;3.40;1.77;;;30.10;31.00;;;;;;5023398;28;20041;-69
2022/08/11 17:39:11;;;;;;;4.65;1.77;;;30.10;31.10;;;;;;5034040;28;20034;-69
2022/08/11 17:49:54;;;;;;;3.58;1.58;;;30.00;31.00;;;;;;5031120;28;20029;-68
2022/08/11 18:00:37;;;;;;;4.32;1.90;;;29.80;31.20;;;;;;5022601;28;20037;-68
2022/08/11 18:05:50;;;;;;;3.72;1.65;;;29.80;31.20;;;;;;5024167;28;20029;-69
